sensor_id;sensor_type;location;lat;lon;timestamp;pressure;altitude;pressure_sealevel;temperature;humidity
74615;BME280;63121;51.458;-0.110;2023-01-23T00:01:09;103533.41;;;1.54;67.43
74615;BME280;63121;51.458;-0.110;2023-01-23T00:03:35;103536.06;;;1.44;67.40
74615;BME280;63121;51.458;-0.110;2023-01-23T00:06:06;103529.66;;;1.37;68.04
74615;BME280;63121;51.458;-0.110;2023-01-23T00:08:33;103524.75;;;1.52;67.31
74615;BME280;63121;51.458;-0.110;2023-01-23T00:10:59;103511.47;;;1.45;67.88
74615;BME280;63121;51.458;-0.110;2023-01-23T00:13:24;103508.28;;;1.35;67.84
74615;BME280;63121;51.458;-0.110;2023-01-23T00:15:50;103500.84;;;1.38;67.35
74615;BME280;63121;51.458;-0.110;2023-01-23T00:18:15;103496.44;;;1.24;67.89
74615;BME280;63121;51.458;-0.110;2023-01-23T00:20:41;103491.22;;;1.34;67.43
74615;BME280;63121;51.458;-0.110;2023-01-23T00:23:07;103498.00;;;1.46;66.86
74615;BME280;63121;51.458;-0.110;2023-01-23T00:25:34;103482.91;;;1.49;66.23
74615;BME280;63121;51.458;-0.110;2023-01-23T00:28:00;103480.94;;;1.45;66.75
74615;BME280;63121;51.458;-0.110;2023-01-23T00:30:25;103483.72;;;1.48;66.40
74615;BME280;63121;51.458;-0.110;2023-01-23T00:32:51;103480.19;;;1.46;66.23
74615;BME280;63121;51.458;-0.110;2023-01-23T00:35:16;103477.41;;;1.42;66.61
74615;BME280;63121;51.458;-0.110;2023-01-23T00:37:41;103480.28;;;1.35;66.22
74615;BME280;63121;51.458;-0.110;2023-01-23T00:40:08;103476.63;;;1.32;66.53
74615;BME280;63121;51.458;-0.110;2023-01-23T00:42:33;103471.97;;;1.38;65.71
74615;BME280;63121;51.458;-0.110;2023-01-23T00:44:59;103470.56;;;1.41;65.54
74615;BME280;63121;51.458;-0.110;2023-01-23T00:47:24;103472.44;;;1.20;66.25
74615;BME280;63121;51.458;-0.110;2023-01-23T00:49:49;103477.41;;;1.19;66.51
74615;BME280;63121;51.458;-0.110;2023-01-23T00:52:18;103477.31;;;1.06;67.06
74615;BME280;63121;51.458;-0.110;2023-01-23T00:54:43;103489.03;;;0.92;67.26
74615;BME280;63121;51.458;-0.110;2023-01-23T00:57:09;103498.06;;;0.88;68.38
74615;BME280;63121;51.458;-0.110;2023-01-23T00:59:34;103501.19;;;0.96;68.32
74615;BME280;63121;51.458;-0.110;2023-01-23T01:01:59;103488.81;;;1.00;68.47
74615;BME280;63121;51.458;-0.110;2023-01-23T01:04:25;103496.66;;;1.15;67.55
74615;BME280;63121;51.458;-0.110;2023-01-23T01:06:50;103504.06;;;1.00;68.40
74615;BME280;63121;51.458;-0.110;2023-01-23T01:09:15;103502.72;;;0.82;71.52
74615;BME280;63121;51.458;-0.110;2023-01-23T01:11:41;103506.28;;;1.31;69.93
74615;BME280;63121;51.458;-0.110;2023-01-23T01:14:06;103503.41;;;1.50;69.10
74615;BME280;63121;51.458;-0.110;2023-01-23T01:16:31;103499.75;;;1.47;68.15
74615;BME280;63121;51.458;-0.110;2023-01-23T01:18:57;103503.09;;;1.46;68.04
74615;BME280;63121;51.458;-0.110;2023-01-23T01:21:22;103494.22;;;1.40;68.33
74615;BME280;63121;51.458;-0.110;2023-01-23T01:23:48;103494.44;;;1.32;67.88
74615;BME280;63121;51.458;-0.110;2023-01-23T01:26:13;103494.78;;;1.36;67.67
74615;BME280;63121;51.458;-0.110;2023-01-23T01:28:39;103502.72;;;1.41;67.49
74615;BME280;63121;51.458;-0.110;2023-01-23T01:31:12;103505.50;;;1.32;68.64
74615;BME280;63121;51.458;-0.110;2023-01-23T01:33:39;103512.47;;;1.47;68.19
74615;BME280;63121;51.458;-0.110;2023-01-23T01:36:10;103513.78;;;1.53;68.36
74615;BME280;63121;51.458;-0.110;2023-01-23T01:38:35;103499.81;;;1.60;68.02
74615;BME280;63121;51.458;-0.110;2023-01-23T01:41:01;103503.16;;;1.47;68.00
74615;BME280;63121;51.458;-0.110;2023-01-23T01:43:27;103501.28;;;1.33;67.97
74615;BME280;63121;51.458;-0.110;2023-01-23T01:48:59;103495.44;;;1.22;67.87
74615;BME280;63121;51.458;-0.110;2023-01-23T01:51:32;103487.69;;;1.09;68.05
74615;BME280;63121;51.458;-0.110;2023-01-23T01:54:08;103494.88;;;1.02;67.90
74615;BME280;63121;51.458;-0.110;2023-01-23T01:56:40;103494.13;;;1.04;68.14
74615;BME280;63121;51.458;-0.110;2023-01-23T01:59:09;103492.66;;;1.07;67.47
74615;BME280;63121;51.458;-0.110;2023-01-23T02:01:36;103494.97;;;0.92;67.63
74615;BME280;63121;51.458;-0.110;2023-01-23T02:04:01;103493.44;;;0.94;67.61
74615;BME280;63121;51.458;-0.110;2023-01-23T02:06:28;103491.56;;;0.92;68.10
74615;BME280;63121;51.458;-0.110;2023-01-23T02:09:03;103495.53;;;0.88;67.84
74615;BME280;63121;51.458;-0.110;2023-01-23T02:11:29;103494.97;;;0.92;67.90
74615;BME280;63121;51.458;-0.110;2023-01-23T02:13:55;103498.78;;;0.97;67.55
74615;BME280;63121;51.458;-0.110;2023-01-23T02:16:26;103504.06;;;1.00;67.25
74615;BME280;63121;51.458;-0.110;2023-01-23T02:18:57;103504.72;;;0.98;67.26
74615;BME280;63121;51.458;-0.110;2023-01-23T02:21:24;103502.75;;;1.06;66.84
74615;BME280;63121;51.458;-0.110;2023-01-23T02:26:33;103509.94;;;1.11;66.33
74615;BME280;63121;51.458;-0.110;2023-01-23T02:29:02;103521.44;;;1.18;66.45
74615;BME280;63121;51.458;-0.110;2023-01-23T02:31:28;103523.66;;;1.37;65.24
74615;BME280;63121;51.458;-0.110;2023-01-23T02:33:56;103529.19;;;1.31;65.19
74615;BME280;63121;51.458;-0.110;2023-01-23T02:36:25;103544.13;;;1.15;65.57
74615;BME280;63121;51.458;-0.110;2023-01-23T02:39:10;103543.78;;;1.10;66.29
74615;BME280;63121;51.458;-0.110;2023-01-23T02:41:45;103546.31;;;0.98;67.17
74615;BME280;63121;51.458;-0.110;2023-01-23T02:44:17;103541.34;;;1.00;67.92
74615;BME280;63121;51.458;-0.110;2023-01-23T02:46:43;103541.88;;;0.96;68.76
74615;BME280;63121;51.458;-0.110;2023-01-23T02:49:09;103558.47;;;0.91;68.58
74615;BME280;63121;51.458;-0.110;2023-01-23T02:51:35;103554.25;;;1.03;68.30
74615;BME280;63121;51.458;-0.110;2023-01-23T02:54:00;103550.41;;;1.20;67.30
74615;BME280;63121;51.458;-0.110;2023-01-23T02:56:26;103548.88;;;1.22;67.57
74615;BME280;63121;51.458;-0.110;2023-01-23T02:58:52;103558.28;;;1.23;66.90
74615;BME280;63121;51.458;-0.110;2023-01-23T03:01:36;103559.03;;;1.22;67.23
74615;BME280;63121;51.458;-0.110;2023-01-23T03:04:03;103564.03;;;1.32;66.74
74615;BME280;63121;51.458;-0.110;2023-01-23T03:06:31;103571.47;;;1.29;66.42
74615;BME280;63121;51.458;-0.110;2023-01-23T03:09:07;103574.44;;;1.24;66.02
74615;BME280;63121;51.458;-0.110;2023-01-23T03:11:34;103567.78;;;1.26;66.32
74615;BME280;63121;51.458;-0.110;2023-01-23T03:14:00;103573.97;;;1.17;66.50
74615;BME280;63121;51.458;-0.110;2023-01-23T03:16:26;103576.34;;;1.38;64.73
74615;BME280;63121;51.458;-0.110;2023-01-23T03:18:51;103571.22;;;1.14;65.63
74615;BME280;63121;51.458;-0.110;2023-01-23T03:21:16;103569.88;;;1.19;65.50
74615;BME280;63121;51.458;-0.110;2023-01-23T03:23:42;103571.91;;;1.12;65.49
74615;BME280;63121;51.458;-0.110;2023-01-23T03:26:10;103578.75;;;1.13;65.48
74615;BME280;63121;51.458;-0.110;2023-01-23T03:28:36;103569.22;;;1.10;65.29
74615;BME280;63121;51.458;-0.110;2023-01-23T03:31:20;103575.09;;;1.21;65.80
74615;BME280;63121;51.458;-0.110;2023-01-23T03:33:45;103570.22;;;1.12;65.98
74615;BME280;63121;51.458;-0.110;2023-01-23T03:36:12;103572.44;;;1.08;66.57
74615;BME280;63121;51.458;-0.110;2023-01-23T03:38:38;103568.56;;;1.13;66.22
74615;BME280;63121;51.458;-0.110;2023-01-23T03:41:23;103579.19;;;1.19;66.07
74615;BME280;63121;51.458;-0.110;2023-01-23T03:43:49;103579.06;;;1.17;65.77
74615;BME280;63121;51.458;-0.110;2023-01-23T03:46:14;103566.22;;;1.16;65.87
74615;BME280;63121;51.458;-0.110;2023-01-23T03:48:39;103565.81;;;1.10;66.08
74615;BME280;63121;51.458;-0.110;2023-01-23T03:51:05;103568.44;;;1.11;66.16
74615;BME280;63121;51.458;-0.110;2023-01-23T03:53:31;103574.16;;;0.97;66.96
74615;BME280;63121;51.458;-0.110;2023-01-23T03:55:57;103569.28;;;0.88;67.33
74615;BME280;63121;51.458;-0.110;2023-01-23T03:58:22;103575.91;;;0.86;67.94
74615;BME280;63121;51.458;-0.110;2023-01-23T04:00:47;103578.63;;;0.66;68.49
74615;BME280;63121;51.458;-0.110;2023-01-23T04:03:13;103581.44;;;0.80;68.19
74615;BME280;63121;51.458;-0.110;2023-01-23T04:05:38;103586.22;;;0.32;68.88
74615;BME280;63121;51.458;-0.110;2023-01-23T04:08:03;103586.50;;;0.25;70.14
74615;BME280;63121;51.458;-0.110;2023-01-23T04:10:29;103596.13;;;0.29;70.27
74615;BME280;63121;51.458;-0.110;2023-01-23T04:12:55;103588.16;;;0.46;68.95
74615;BME280;63121;51.458;-0.110;2023-01-23T04:15:20;103587.56;;;0.16;69.99
74615;BME280;63121;51.458;-0.110;2023-01-23T04:17:46;103590.00;;;-0.17;70.79
74615;BME280;63121;51.458;-0.110;2023-01-23T04:20:11;103590.41;;;0.09;70.05
74615;BME280;63121;51.458;-0.110;2023-01-23T04:22:37;103596.22;;;-0.14;70.86
74615;BME280;63121;51.458;-0.110;2023-01-23T04:25:04;103596.75;;;0.04;70.19
74615;BME280;63121;51.458;-0.110;2023-01-23T04:27:30;103596.72;;;0.14;69.95
74615;BME280;63121;51.458;-0.110;2023-01-23T04:29:56;103597.31;;;0.00;70.49
74615;BME280;63121;51.458;-0.110;2023-01-23T04:32:24;103586.28;;;0.22;70.06
74615;BME280;63121;51.458;-0.110;2023-01-23T04:34:49;103591.59;;;0.25;69.52
74615;BME280;63121;51.458;-0.110;2023-01-23T04:37:15;103593.72;;;0.30;69.94
74615;BME280;63121;51.458;-0.110;2023-01-23T04:39:41;103591.22;;;0.42;69.34
74615;BME280;63121;51.458;-0.110;2023-01-23T04:42:07;103592.59;;;0.49;69.56
74615;BME280;63121;51.458;-0.110;2023-01-23T04:44:33;103599.25;;;0.58;68.83
74615;BME280;63121;51.458;-0.110;2023-01-23T04:46:58;103590.16;;;0.50;69.05
74615;BME280;63121;51.458;-0.110;2023-01-23T04:49:24;103591.28;;;0.54;69.02
74615;BME280;63121;51.458;-0.110;2023-01-23T04:51:50;103585.44;;;0.55;68.82
74615;BME280;63121;51.458;-0.110;2023-01-23T04:54:16;103589.53;;;0.53;68.17
74615;BME280;63121;51.458;-0.110;2023-01-23T04:56:43;103594.63;;;0.65;67.42
74615;BME280;63121;51.458;-0.110;2023-01-23T04:59:08;103601.84;;;0.48;68.07
74615;BME280;63121;51.458;-0.110;2023-01-23T05:01:34;103598.44;;;0.48;67.87
74615;BME280;63121;51.458;-0.110;2023-01-23T05:03:59;103597.69;;;0.49;67.67
74615;BME280;63121;51.458;-0.110;2023-01-23T05:06:25;103586.97;;;0.31;67.67
74615;BME280;63121;51.458;-0.110;2023-01-23T05:08:50;103592.41;;;0.35;67.92
74615;BME280;63121;51.458;-0.110;2023-01-23T05:11:16;103596.47;;;0.33;67.62
74615;BME280;63121;51.458;-0.110;2023-01-23T05:13:41;103596.38;;;0.32;67.25
74615;BME280;63121;51.458;-0.110;2023-01-23T05:16:08;103598.38;;;0.14;67.47
74615;BME280;63121;51.458;-0.110;2023-01-23T05:18:34;103594.59;;;0.31;67.47
74615;BME280;63121;51.458;-0.110;2023-01-23T05:20:59;103591.53;;;0.35;66.83
74615;BME280;63121;51.458;-0.110;2023-01-23T05:23:24;103587.97;;;0.33;66.62
74615;BME280;63121;51.458;-0.110;2023-01-23T05:25:50;103590.31;;;0.30;67.02
74615;BME280;63121;51.458;-0.110;2023-01-23T05:28:15;103583.19;;;0.48;65.95
74615;BME280;63121;51.458;-0.110;2023-01-23T05:30:41;103588.63;;;0.52;65.63
74615;BME280;63121;51.458;-0.110;2023-01-23T05:33:06;103581.25;;;0.33;66.23
74615;BME280;63121;51.458;-0.110;2023-01-23T05:35:31;103572.50;;;0.52;65.98
74615;BME280;63121;51.458;-0.110;2023-01-23T05:37:57;103574.38;;;0.54;65.75
74615;BME280;63121;51.458;-0.110;2023-01-23T05:40:22;103575.91;;;0.52;65.20
74615;BME280;63121;51.458;-0.110;2023-01-23T05:42:48;103577.44;;;0.50;65.49
74615;BME280;63121;51.458;-0.110;2023-01-23T05:45:14;103573.53;;;0.32;66.11
74615;BME280;63121;51.458;-0.110;2023-01-23T05:47:40;103573.81;;;0.47;65.53
74615;BME280;63121;51.458;-0.110;2023-01-23T05:50:07;103573.69;;;0.45;65.45
74615;BME280;63121;51.458;-0.110;2023-01-23T05:52:34;103570.28;;;0.56;64.62
74615;BME280;63121;51.458;-0.110;2023-01-23T05:54:59;103572.69;;;0.43;64.96
74615;BME280;63121;51.458;-0.110;2023-01-23T05:57:25;103567.06;;;0.47;64.81
74615;BME280;63121;51.458;-0.110;2023-01-23T05:59:50;103574.50;;;0.56;64.54
74615;BME280;63121;51.458;-0.110;2023-01-23T06:02:15;103574.81;;;0.49;64.21
74615;BME280;63121;51.458;-0.110;2023-01-23T06:04:41;103584.84;;;0.47;64.36
74615;BME280;63121;51.458;-0.110;2023-01-23T06:07:12;103584.13;;;0.60;63.61
74615;BME280;63121;51.458;-0.110;2023-01-23T06:09:38;103582.66;;;0.52;64.74
74615;BME280;63121;51.458;-0.110;2023-01-23T06:12:04;103589.88;;;0.57;63.94
74615;BME280;63121;51.458;-0.110;2023-01-23T06:14:29;103588.41;;;0.49;64.34
74615;BME280;63121;51.458;-0.110;2023-01-23T06:16:54;103579.03;;;0.60;63.62
74615;BME280;63121;51.458;-0.110;2023-01-23T06:19:19;103594.28;;;0.60;64.13
74615;BME280;63121;51.458;-0.110;2023-01-23T06:21:45;103590.81;;;0.48;64.81
74615;BME280;63121;51.458;-0.110;2023-01-23T06:24:10;103591.59;;;0.47;65.51
74615;BME280;63121;51.458;-0.110;2023-01-23T06:26:35;103589.59;;;0.43;65.25
74615;BME280;63121;51.458;-0.110;2023-01-23T06:29:01;103589.28;;;0.50;65.53
74615;BME280;63121;51.458;-0.110;2023-01-23T06:31:26;103591.88;;;0.39;65.94
74615;BME280;63121;51.458;-0.110;2023-01-23T06:33:54;103593.22;;;0.46;65.22
74615;BME280;63121;51.458;-0.110;2023-01-23T06:36:19;103595.28;;;0.40;65.48
74615;BME280;63121;51.458;-0.110;2023-01-23T06:38:45;103601.16;;;0.39;65.96
74615;BME280;63121;51.458;-0.110;2023-01-23T06:41:10;103608.72;;;0.49;65.58
74615;BME280;63121;51.458;-0.110;2023-01-23T06:43:36;103609.63;;;0.28;66.10
74615;BME280;63121;51.458;-0.110;2023-01-23T06:46:01;103611.28;;;-0.05;67.12
74615;BME280;63121;51.458;-0.110;2023-01-23T06:48:26;103611.84;;;0.13;66.69
74615;BME280;63121;51.458;-0.110;2023-01-23T06:50:52;103611.91;;;0.25;66.20
74615;BME280;63121;51.458;-0.110;2023-01-23T06:53:18;103609.84;;;0.09;66.90
74615;BME280;63121;51.458;-0.110;2023-01-23T06:55:43;103614.41;;;0.35;66.18
74615;BME280;63121;51.458;-0.110;2023-01-23T06:58:09;103613.88;;;0.17;66.81
74615;BME280;63121;51.458;-0.110;2023-01-23T07:00:34;103619.16;;;0.20;66.46
74615;BME280;63121;51.458;-0.110;2023-01-23T07:03:00;103619.88;;;0.07;66.49
74615;BME280;63121;51.458;-0.110;2023-01-23T07:05:28;103621.34;;;0.15;66.91
74615;BME280;63121;51.458;-0.110;2023-01-23T07:07:54;103619.03;;;0.18;66.45
74615;BME280;63121;51.458;-0.110;2023-01-23T07:10:20;103615.84;;;0.21;66.57
74615;BME280;63121;51.458;-0.110;2023-01-23T07:12:47;103625.94;;;0.09;67.28
74615;BME280;63121;51.458;-0.110;2023-01-23T07:15:12;103618.66;;;-0.08;67.37
74615;BME280;63121;51.458;-0.110;2023-01-23T07:17:37;103627.72;;;0.10;67.24
74615;BME280;63121;51.458;-0.110;2023-01-23T07:20:03;103625.00;;;0.19;66.50
74615;BME280;63121;51.458;-0.110;2023-01-23T07:22:29;103622.56;;;-0.02;67.24
74615;BME280;63121;51.458;-0.110;2023-01-23T07:24:57;103621.84;;;0.22;67.07
74615;BME280;63121;51.458;-0.110;2023-01-23T07:27:22;103636.28;;;0.01;67.05
74615;BME280;63121;51.458;-0.110;2023-01-23T07:29:48;103635.41;;;0.00;67.40
74615;BME280;63121;51.458;-0.110;2023-01-23T07:32:13;103628.41;;;-0.03;67.53
74615;BME280;63121;51.458;-0.110;2023-01-23T07:34:38;103634.94;;;-0.16;68.72
74615;BME280;63121;51.458;-0.110;2023-01-23T07:37:04;103628.66;;;0.01;67.53
74615;BME280;63121;51.458;-0.110;2023-01-23T07:39:30;103636.31;;;-0.10;67.67
74615;BME280;63121;51.458;-0.110;2023-01-23T07:41:55;103633.06;;;0.13;67.08
74615;BME280;63121;51.458;-0.110;2023-01-23T07:44:21;103625.75;;;-0.04;68.01
74615;BME280;63121;51.458;-0.110;2023-01-23T07:46:47;103625.69;;;0.06;67.60
74615;BME280;63121;51.458;-0.110;2023-01-23T07:49:13;103633.75;;;0.23;67.31
74615;BME280;63121;51.458;-0.110;2023-01-23T07:51:39;103632.41;;;0.38;66.74
74615;BME280;63121;51.458;-0.110;2023-01-23T07:54:05;103637.44;;;0.26;66.67
74615;BME280;63121;51.458;-0.110;2023-01-23T07:56:31;103639.97;;;0.26;66.51
74615;BME280;63121;51.458;-0.110;2023-01-23T07:58:57;103635.59;;;0.35;66.60
74615;BME280;63121;51.458;-0.110;2023-01-23T08:01:23;103627.22;;;0.04;67.58
74615;BME280;63121;51.458;-0.110;2023-01-23T08:03:48;103631.03;;;0.31;67.08
74615;BME280;63121;51.458;-0.110;2023-01-23T08:06:14;103628.16;;;0.27;66.82
74615;BME280;63121;51.458;-0.110;2023-01-23T08:08:39;103629.03;;;0.27;66.63
74615;BME280;63121;51.458;-0.110;2023-01-23T08:11:07;103627.16;;;0.25;67.01
74615;BME280;63121;51.458;-0.110;2023-01-23T08:13:34;103618.84;;;0.05;67.57
74615;BME280;63121;51.458;-0.110;2023-01-23T08:16:00;103624.28;;;0.10;67.78
74615;BME280;63121;51.458;-0.110;2023-01-23T08:18:28;103626.91;;;0.22;67.22
74615;BME280;63121;51.458;-0.110;2023-01-23T08:20:54;103621.13;;;0.34;67.29
74615;BME280;63121;51.458;-0.110;2023-01-23T08:23:29;103619.16;;;0.42;66.79
74615;BME280;63121;51.458;-0.110;2023-01-23T08:25:57;103613.28;;;0.53;66.60
74615;BME280;63121;51.458;-0.110;2023-01-23T08:28:24;103608.69;;;0.71;65.79
74615;BME280;63121;51.458;-0.110;2023-01-23T08:30:50;103607.25;;;0.41;66.25
74615;BME280;63121;51.458;-0.110;2023-01-23T08:33:17;103606.50;;;0.76;65.58
74615;BME280;63121;51.458;-0.110;2023-01-23T08:35:50;103614.22;;;0.66;66.17
74615;BME280;63121;51.458;-0.110;2023-01-23T08:38:16;103613.91;;;0.73;65.55
74615;BME280;63121;51.458;-0.110;2023-01-23T08:40:46;103617.84;;;0.91;65.23
74615;BME280;63121;51.458;-0.110;2023-01-23T08:43:12;103614.38;;;0.79;65.85
74615;BME280;63121;51.458;-0.110;2023-01-23T08:45:44;103607.97;;;0.84;65.61
74615;BME280;63121;51.458;-0.110;2023-01-23T08:48:11;103611.41;;;0.85;66.00
74615;BME280;63121;51.458;-0.110;2023-01-23T08:50:37;103616.97;;;1.02;64.84
74615;BME280;63121;51.458;-0.110;2023-01-23T08:53:02;103618.66;;;1.02;65.58
74615;BME280;63121;51.458;-0.110;2023-01-23T08:55:29;103619.78;;;1.17;64.98
74615;BME280;63121;51.458;-0.110;2023-01-23T08:57:54;103617.72;;;1.35;64.76
74615;BME280;63121;51.458;-0.110;2023-01-23T09:00:20;103623.72;;;1.48;64.13
74615;BME280;63121;51.458;-0.110;2023-01-23T09:02:45;103622.03;;;1.48;64.00
74615;BME280;63121;51.458;-0.110;2023-01-23T09:05:10;103627.81;;;1.46;64.29
74615;BME280;63121;51.458;-0.110;2023-01-23T09:07:36;103622.50;;;1.54;64.32
74615;BME280;63121;51.458;-0.110;2023-01-23T09:10:03;103625.59;;;1.50;64.34
74615;BME280;63121;51.458;-0.110;2023-01-23T09:12:28;103635.13;;;1.65;63.83
74615;BME280;63121;51.458;-0.110;2023-01-23T09:14:54;103630.91;;;1.41;64.94
74615;BME280;63121;51.458;-0.110;2023-01-23T09:17:19;103633.31;;;1.52;64.71
74615;BME280;63121;51.458;-0.110;2023-01-23T09:19:44;103632.88;;;1.57;65.00
74615;BME280;63121;51.458;-0.110;2023-01-23T09:22:10;103641.53;;;1.48;65.65
74615;BME280;63121;51.458;-0.110;2023-01-23T09:24:35;103643.41;;;1.62;65.02
74615;BME280;63121;51.458;-0.110;2023-01-23T09:27:00;103643.38;;;1.38;65.73
74615;BME280;63121;51.458;-0.110;2023-01-23T09:29:26;103647.72;;;1.39;65.93
74615;BME280;63121;51.458;-0.110;2023-01-23T09:31:51;103655.72;;;1.22;66.92
74615;BME280;63121;51.458;-0.110;2023-01-23T09:34:17;103655.66;;;1.32;67.17
74615;BME280;63121;51.458;-0.110;2023-01-23T09:36:42;103663.22;;;1.66;65.75
74615;BME280;63121;51.458;-0.110;2023-01-23T09:39:07;103660.13;;;1.70;66.28
74615;BME280;63121;51.458;-0.110;2023-01-23T09:41:33;103666.91;;;1.81;65.45
74615;BME280;63121;51.458;-0.110;2023-01-23T09:44:04;103667.44;;;2.01;65.07
74615;BME280;63121;51.458;-0.110;2023-01-23T09:49:13;103671.88;;;2.03;64.98
74615;BME280;63121;51.458;-0.110;2023-01-23T09:51:55;103677.63;;;1.89;65.58
74615;BME280;63121;51.458;-0.110;2023-01-23T09:57:17;103680.88;;;2.47;64.52
74615;BME280;63121;51.458;-0.110;2023-01-23T09:59:52;103680.34;;;2.51;64.07
74615;BME280;63121;51.458;-0.110;2023-01-23T10:02:21;103687.31;;;2.54;64.46
74615;BME280;63121;51.458;-0.110;2023-01-23T10:04:49;103688.41;;;2.57;64.37
74615;BME280;63121;51.458;-0.110;2023-01-23T10:07:36;103694.72;;;2.51;64.61
74615;BME280;63121;51.458;-0.110;2023-01-23T10:24:33;103709.63;;;1.97;66.49
74615;BME280;63121;51.458;-0.110;2023-01-23T10:27:17;103708.75;;;2.20;66.57
74615;BME280;63121;51.458;-0.110;2023-01-23T10:29:47;103726.69;;;2.10;67.03
74615;BME280;63121;51.458;-0.110;2023-01-23T10:32:25;103723.16;;;2.20;65.61
74615;BME280;63121;51.458;-0.110;2023-01-23T10:35:02;103727.66;;;2.59;64.57
74615;BME280;63121;51.458;-0.110;2023-01-23T10:38:06;103725.16;;;2.73;65.21
74615;BME280;63121;51.458;-0.110;2023-01-23T10:40:36;103727.16;;;2.77;64.43
74615;BME280;63121;51.458;-0.110;2023-01-23T10:43:20;103728.97;;;2.66;64.78
74615;BME280;63121;51.458;-0.110;2023-01-23T10:45:47;103725.38;;;2.76;64.28
74615;BME280;63121;51.458;-0.110;2023-01-23T10:50:58;103728.84;;;3.65;62.06
74615;BME280;63121;51.458;-0.110;2023-01-23T10:53:24;103726.63;;;3.31;62.93
74615;BME280;63121;51.458;-0.110;2023-01-23T10:55:56;103722.84;;;3.64;63.00
74615;BME280;63121;51.458;-0.110;2023-01-23T10:58:35;103714.72;;;4.10;61.38
74615;BME280;63121;51.458;-0.110;2023-01-23T11:01:01;103690.72;;;4.08;61.58
74615;BME280;63121;51.458;-0.110;2023-01-23T11:03:30;103686.69;;;4.25;61.42
74615;BME280;63121;51.458;-0.110;2023-01-23T11:06:08;103684.34;;;4.01;62.03
74615;BME280;63121;51.458;-0.110;2023-01-23T11:08:37;103682.66;;;4.02;61.94
74615;BME280;63121;51.458;-0.110;2023-01-23T11:13:42;103683.06;;;3.95;62.30
74615;BME280;63121;51.458;-0.110;2023-01-23T11:16:20;103677.19;;;4.09;62.49
74615;BME280;63121;51.458;-0.110;2023-01-23T11:18:52;103685.22;;;4.02;62.33
74615;BME280;63121;51.458;-0.110;2023-01-23T11:21:23;103678.88;;;4.50;61.84
74615;BME280;63121;51.458;-0.110;2023-01-23T11:27:04;103684.59;;;4.74;61.46
74615;BME280;63121;51.458;-0.110;2023-01-23T11:29:47;103680.06;;;4.98;61.20
74615;BME280;63121;51.458;-0.110;2023-01-23T11:32:19;103679.38;;;5.16;60.44
74615;BME280;63121;51.458;-0.110;2023-01-23T11:34:49;103676.72;;;5.14;60.00
74615;BME280;63121;51.458;-0.110;2023-01-23T11:40:02;103664.47;;;5.08;60.90
74615;BME280;63121;51.458;-0.110;2023-01-23T11:42:29;103651.84;;;5.26;60.38
74615;BME280;63121;51.458;-0.110;2023-01-23T11:44:58;103650.72;;;5.21;60.45
74615;BME280;63121;51.458;-0.110;2023-01-23T11:53:19;103649.38;;;5.28;60.87
74615;BME280;63121;51.458;-0.110;2023-01-23T11:58:22;103646.00;;;5.29;60.65
74615;BME280;63121;51.458;-0.110;2023-01-23T12:11:20;103647.94;;;5.78;59.98
74615;BME280;63121;51.458;-0.110;2023-01-23T12:25:33;103640.41;;;6.27;59.15
74615;BME280;63121;51.458;-0.110;2023-01-23T12:28:04;103646.00;;;6.36;58.81
74615;BME280;63121;51.458;-0.110;2023-01-23T12:33:49;103645.34;;;6.07;59.64
74615;BME280;63121;51.458;-0.110;2023-01-23T12:36:43;103644.28;;;6.04;59.30
74615;BME280;63121;51.458;-0.110;2023-01-23T12:39:32;103640.81;;;6.35;58.55
74615;BME280;63121;51.458;-0.110;2023-01-23T12:42:06;103643.88;;;6.60;59.08
74615;BME280;63121;51.458;-0.110;2023-01-23T12:44:35;103642.09;;;6.59;58.07
74615;BME280;63121;51.458;-0.110;2023-01-23T12:50:03;103654.69;;;6.07;59.62
74615;BME280;63121;51.458;-0.110;2023-01-23T12:52:43;103646.59;;;6.80;58.38
74615;BME280;63121;51.458;-0.110;2023-01-23T12:55:20;103652.91;;;7.03;57.88
74615;BME280;63121;51.458;-0.110;2023-01-23T12:57:47;103636.78;;;6.89;58.41
74615;BME280;63121;51.458;-0.110;2023-01-23T13:03:21;103637.06;;;7.11;57.36
74615;BME280;63121;51.458;-0.110;2023-01-23T13:08:33;103621.84;;;7.50;56.64
74615;BME280;63121;51.458;-0.110;2023-01-23T13:14:37;103613.09;;;7.29;57.22
74615;BME280;63121;51.458;-0.110;2023-01-23T13:23:32;103622.38;;;7.61;55.19
74615;BME280;63121;51.458;-0.110;2023-01-23T13:28:44;103623.69;;;7.71;55.72
74615;BME280;63121;51.458;-0.110;2023-01-23T13:31:44;103616.25;;;7.77;56.29
74615;BME280;63121;51.458;-0.110;2023-01-23T13:36:46;103613.94;;;7.64;56.54
74615;BME280;63121;51.458;-0.110;2023-01-23T13:39:27;103622.09;;;7.55;56.25
74615;BME280;63121;51.458;-0.110;2023-01-23T13:50:52;103606.25;;;8.01;56.09
74615;BME280;63121;51.458;-0.110;2023-01-23T13:53:23;103605.53;;;8.23;55.44
74615;BME280;63121;51.458;-0.110;2023-01-23T13:56:17;103602.84;;;8.02;55.02
74615;BME280;63121;51.458;-0.110;2023-01-23T13:59:04;103608.22;;;8.07;55.23
74615;BME280;63121;51.458;-0.110;2023-01-23T14:01:38;103603.44;;;7.97;56.12
74615;BME280;63121;51.458;-0.110;2023-01-23T14:04:25;103612.44;;;8.24;54.78
74615;BME280;63121;51.458;-0.110;2023-01-23T14:10:27;103612.69;;;8.30;54.65
74615;BME280;63121;51.458;-0.110;2023-01-23T14:13:19;103598.38;;;7.98;55.10
74615;BME280;63121;51.458;-0.110;2023-01-23T14:15:51;103602.38;;;7.91;55.04
74615;BME280;63121;51.458;-0.110;2023-01-23T14:21:26;103594.94;;;7.98;55.24
74615;BME280;63121;51.458;-0.110;2023-01-23T14:23:54;103592.81;;;7.89;55.36
74615;BME280;63121;51.458;-0.110;2023-01-23T14:26:26;103600.66;;;7.92;56.04
74615;BME280;63121;51.458;-0.110;2023-01-23T14:28:57;103594.56;;;7.90;56.55
74615;BME280;63121;51.458;-0.110;2023-01-23T14:31:27;103599.38;;;7.82;56.03
74615;BME280;63121;51.458;-0.110;2023-01-23T14:34:03;103601.66;;;7.76;56.66
74615;BME280;63121;51.458;-0.110;2023-01-23T14:36:31;103606.13;;;7.80;56.73
74615;BME280;63121;51.458;-0.110;2023-01-23T14:39:00;103600.78;;;7.58;57.18
74615;BME280;63121;51.458;-0.110;2023-01-23T14:41:31;103603.63;;;7.46;57.42
74615;BME280;63121;51.458;-0.110;2023-01-23T14:43:58;103605.56;;;7.32;57.86
74615;BME280;63121;51.458;-0.110;2023-01-23T14:46:33;103598.44;;;7.44;57.62